Time;durP1;ratioP1;P1;durP2;ratioP2;P2;SDS_P1;SDS_P2;PMS_P1;PMS_P2;Temp;Humidity;BMP_temperature;BMP_pressure;BME280_temperature;BME280_humidity;BME280_pressure;Samples;Min_cycle;Max_cycle;Signal;HPM_P1;HPM_P2
2021/08/03 00:02:06;;;;;;;0.90;0.30;;;20.60;67.00;;;;;;5095457;28;20527;-72
2021/08/03 00:04:41;;;;;;;0.35;0.20;;;20.60;67.00;;;;;;5095757;28;20040;-72
2021/08/03 00:07:13;;;;;;;0.57;0.22;;;20.60;67.00;;;;;;5096003;28;20044;-71
2021/08/03 00:09:40;;;;;;;0.88;0.20;;;20.60;67.00;;;;;;5095397;28;20492;-72
2021/08/03 00:12:10;;;;;;;0.70;0.30;;;20.60;67.00;;;;;;5095302;28;20063;-71
2021/08/03 00:14:42;;;;;;;1.10;0.30;;;20.60;67.00;;;;;;5095204;28;20119;-72
2021/08/03 00:17:12;;;;;;;0.60;0.20;;;20.60;67.00;;;;;;5095238;28;20052;-72
2021/08/03 00:19:39;;;;;;;0.75;0.20;;;20.50;66.90;;;;;;5095088;28;20121;-71
2021/08/03 00:22:05;;;;;;;0.77;0.30;;;20.50;66.90;;;;;;5095783;28;20058;-72
2021/08/03 00:24:33;;;;;;;0.73;0.30;;;20.50;66.90;;;;;;5095351;28;20040;-72
2021/08/03 00:26:59;;;;;;;0.93;0.40;;;20.50;67.00;;;;;;5095190;28;20513;-71
2021/08/03 00:29:25;;;;;;;0.93;0.30;;;20.50;67.00;;;;;;5094383;28;20048;-71
2021/08/03 00:31:51;;;;;;;1.23;0.35;;;20.50;67.00;;;;;;5095537;28;20040;-71
2021/08/03 00:34:17;;;;;;;0.70;0.30;;;20.50;67.10;;;;;;5094808;28;20122;-71
2021/08/03 00:36:43;;;;;;;1.00;0.70;;;20.50;67.00;;;;;;5095504;28;20127;-72
2021/08/03 00:39:09;;;;;;;0.65;0.40;;;20.50;67.00;;;;;;5094950;28;20055;-72
2021/08/03 00:41:42;;;;;;;0.90;0.38;;;20.50;67.10;;;;;;5095010;28;20044;-72
2021/08/03 00:44:08;;;;;;;0.77;0.22;;;20.50;67.10;;;;;;5095256;28;20064;-72
2021/08/03 00:46:35;;;;;;;0.60;0.30;;;20.50;67.10;;;;;;5095442;28;20095;-72
2021/08/03 00:49:01;;;;;;;1.63;0.30;;;20.50;67.10;;;;;;5095287;28;20096;-72
2021/08/03 00:51:26;;;;;;;1.02;0.20;;;20.40;67.00;;;;;;5094981;28;20039;-71
2021/08/03 00:53:52;;;;;;;1.35;0.28;;;20.50;67.10;;;;;;5094948;28;20086;-72
2021/08/03 00:56:18;;;;;;;0.98;0.20;;;20.50;67.10;;;;;;5094752;28;20093;-72
2021/08/03 00:58:44;;;;;;;1.15;0.35;;;20.40;67.10;;;;;;5094658;28;20760;-71
2021/08/03 01:01:11;;;;;;;0.35;0.28;;;20.50;67.10;;;;;;5094837;28;20122;-71
2021/08/03 01:03:37;;;;;;;0.70;0.30;;;20.40;67.00;;;;;;5095129;28;20060;-72
2021/08/03 01:06:26;;;;;;;0.98;0.38;;;20.50;67.10;;;;;;5095020;28;20040;-72
2021/08/03 01:09:08;;;;;;;0.93;0.35;;;20.50;67.10;;;;;;5094674;28;20040;-72
2021/08/03 01:11:54;;;;;;;0.70;0.30;;;20.40;67.10;;;;;;5095030;28;20040;-71
2021/08/03 01:14:23;;;;;;;0.85;0.40;;;20.50;67.10;;;;;;5094915;28;20044;-71
2021/08/03 01:17:01;;;;;;;0.95;0.60;;;20.40;67.10;;;;;;5095287;28;20360;-72
2021/08/03 01:20:01;;;;;;;0.63;0.30;;;20.40;67.10;;;;;;5094608;28;20039;-71
2021/08/03 01:22:56;;;;;;;0.55;0.22;;;20.40;67.10;;;;;;5094987;28;20043;-71
2021/08/03 01:25:53;;;;;;;1.88;0.45;;;20.40;67.10;;;;;;5094540;28;20043;-71
2021/08/03 01:28:25;;;;;;;0.68;0.28;;;20.40;67.20;;;;;;5095005;28;20062;-72
2021/08/03 01:30:56;;;;;;;0.40;0.23;;;20.40;67.20;;;;;;5094632;28;20093;-71
2021/08/03 01:33:26;;;;;;;0.70;0.20;;;20.40;67.20;;;;;;5095113;28;20054;-72
2021/08/03 01:35:55;;;;;;;1.00;0.22;;;20.40;67.10;;;;;;5094300;28;20036;-72
2021/08/03 01:38:23;;;;;;;0.80;0.30;;;20.40;67.20;;;;;;5094773;28;20462;-72
2021/08/03 01:40:52;;;;;;;0.85;0.30;;;20.40;67.80;;;;;;5096168;28;20362;-72
2021/08/03 01:43:18;;;;;;;0.55;0.22;;;20.40;67.20;;;;;;5098084;28;20058;-72
2021/08/03 01:45:47;;;;;;;1.25;0.30;;;20.40;67.20;;;;;;5098081;28;20474;-72
2021/08/03 01:48:14;;;;;;;1.05;0.30;;;20.40;67.20;;;;;;5097822;28;20042;-72
2021/08/03 01:50:43;;;;;;;1.05;0.40;;;20.40;67.20;;;;;;5097834;28;20059;-72
2021/08/03 01:53:10;;;;;;;0.98;0.40;;;20.40;67.20;;;;;;5098087;28;20048;-71
2021/08/03 01:55:36;;;;;;;1.20;0.40;;;20.40;67.20;;;;;;5097882;28;20058;-71
2021/08/03 01:58:03;;;;;;;0.70;0.30;;;20.40;67.10;;;;;;5098239;28;20040;-71
2021/08/03 02:00:30;;;;;;;0.95;0.30;;;20.40;67.10;;;;;;5097452;28;20048;-71
2021/08/03 02:02:56;;;;;;;1.60;0.30;;;20.40;67.10;;;;;;5097723;28;20036;-71
2021/08/03 02:05:23;;;;;;;0.65;0.30;;;20.40;67.10;;;;;;5098333;28;20052;-72
2021/08/03 02:07:49;;;;;;;0.93;0.50;;;20.40;67.10;;;;;;5098111;28;20454;-71
2021/08/03 02:10:19;;;;;;;1.38;0.30;;;20.40;67.10;;;;;;5098032;28;20044;-72
2021/08/03 02:12:47;;;;;;;0.93;0.47;;;20.40;67.10;;;;;;5097655;28;20156;-72
2021/08/03 02:15:13;;;;;;;0.43;0.30;;;20.40;67.10;;;;;;5097421;28;20115;-72
2021/08/03 02:17:39;;;;;;;1.25;0.50;;;20.40;67.10;;;;;;5097932;28;20067;-72
2021/08/03 02:20:06;;;;;;;0.93;0.30;;;20.40;67.10;;;;;;5097546;28;20071;-72
2021/08/03 02:22:33;;;;;;;1.33;0.35;;;20.40;67.10;;;;;;5090322;28;20056;-72
2021/08/03 02:24:59;;;;;;;0.95;0.30;;;20.30;67.00;;;;;;5097500;28;20058;-71
2021/08/03 02:27:24;;;;;;;0.98;0.40;;;20.30;67.00;;;;;;5097213;28;20036;-72
2021/08/03 02:29:51;;;;;;;0.80;0.30;;;20.30;67.00;;;;;;5097118;28;20044;-72
2021/08/03 02:32:24;;;;;;;1.08;0.35;;;20.30;67.00;;;;;;5097050;28;20043;-71
2021/08/03 02:34:56;;;;;;;0.52;0.30;;;20.30;67.00;;;;;;5097510;28;20101;-71
2021/08/03 02:37:34;;;;;;;1.02;0.40;;;20.30;67.00;;;;;;5096968;28;20044;-72
2021/08/03 02:40:01;;;;;;;1.33;0.45;;;20.30;66.90;;;;;;5097214;28;20065;-72
2021/08/03 02:42:28;;;;;;;1.70;0.40;;;20.30;66.90;;;;;;5096914;28;20461;-72
2021/08/03 02:45:02;;;;;;;0.73;0.45;;;20.30;67.00;;;;;;5096854;28;20062;-71
2021/08/03 02:47:36;;;;;;;1.08;0.43;;;20.30;67.00;;;;;;5097501;28;20115;-71
2021/08/03 02:50:07;;;;;;;0.60;0.35;;;20.30;67.00;;;;;;5096896;28;20144;-71
2021/08/03 02:52:42;;;;;;;1.17;0.40;;;20.30;67.00;;;;;;5096112;28;20040;-71
2021/08/03 02:55:21;;;;;;;0.82;0.40;;;20.30;67.00;;;;;;5096565;28;20051;-71
2021/08/03 02:58:00;;;;;;;0.85;0.40;;;20.30;67.00;;;;;;5096448;28;20439;-71
2021/08/03 03:00:29;;;;;;;0.75;0.40;;;20.30;67.10;;;;;;5096356;28;20075;-71
2021/08/03 03:02:56;;;;;;;1.20;0.30;;;20.30;67.10;;;;;;5096563;28;20047;-72
2021/08/03 03:05:27;;;;;;;1.20;0.60;;;20.30;67.10;;;;;;5097048;28;20048;-72
2021/08/03 03:08:01;;;;;;;1.75;0.40;;;20.30;67.10;;;;;;5096377;28;20359;-72
2021/08/03 03:10:29;;;;;;;0.80;0.30;;;20.30;67.10;;;;;;5096288;28;20440;-72
2021/08/03 03:13:04;;;;;;;1.05;0.40;;;20.20;67.10;;;;;;5096117;28;20055;-71
2021/08/03 03:15:31;;;;;;;1.38;0.43;;;20.30;67.10;;;;;;5096408;28;20063;-71
2021/08/03 03:17:57;;;;;;;0.73;0.30;;;20.30;67.10;;;;;;5096244;28;20043;-72
2021/08/03 03:20:25;;;;;;;0.98;0.30;;;20.20;67.00;;;;;;5096075;28;20411;-71
2021/08/03 03:22:54;;;;;;;0.73;0.40;;;20.30;67.10;;;;;;5095897;28;20518;-72
2021/08/03 03:25:25;;;;;;;1.25;0.30;;;20.20;67.00;;;;;;5096456;28;20183;-71
2021/08/03 03:27:56;;;;;;;1.30;0.40;;;20.20;67.00;;;;;;5096099;28;20047;-71
2021/08/03 03:30:23;;;;;;;0.80;0.30;;;20.20;67.10;;;;;;5096693;28;20044;-71
2021/08/03 03:32:49;;;;;;;0.60;0.30;;;20.20;67.10;;;;;;5096010;28;20039;-71
2021/08/03 03:35:19;;;;;;;0.75;0.25;;;20.20;67.10;;;;;;5096440;28;20035;-72
2021/08/03 03:37:46;;;;;;;1.20;0.30;;;20.20;67.10;;;;;;5096233;28;20040;-72
2021/08/03 03:40:19;;;;;;;0.85;0.38;;;20.20;67.10;;;;;;5095948;28;20185;-72
2021/08/03 03:42:48;;;;;;;1.17;0.40;;;20.20;67.10;;;;;;5096350;28;20327;-71
2021/08/03 03:45:16;;;;;;;1.15;0.30;;;20.20;67.20;;;;;;5095756;28;20465;-72
2021/08/03 03:47:53;;;;;;;0.82;0.60;;;20.20;67.20;;;;;;5095763;28;20071;-71
2021/08/03 03:50:26;;;;;;;0.65;0.40;;;20.20;67.10;;;;;;5095440;28;20442;-72
2021/08/03 03:53:06;;;;;;;0.95;0.30;;;20.20;67.20;;;;;;5095674;28;20458;-72
2021/08/03 03:55:33;;;;;;;0.68;0.30;;;20.20;67.20;;;;;;5095534;28;20066;-71
2021/08/03 03:58:00;;;;;;;2.05;0.50;;;20.20;67.20;;;;;;5095487;28;20468;-71
2021/08/03 04:00:28;;;;;;;0.70;0.20;;;20.20;67.20;;;;;;5095847;28;20047;-72
2021/08/03 04:02:54;;;;;;;0.70;0.40;;;20.20;67.20;;;;;;5096032;28;20032;-71
2021/08/03 04:05:21;;;;;;;0.80;0.32;;;20.20;67.20;;;;;;5095050;28;20466;-72
2021/08/03 04:07:50;;;;;;;0.75;0.30;;;20.20;67.20;;;;;;5095426;28;20123;-71
2021/08/03 04:10:18;;;;;;;0.95;0.43;;;20.20;67.20;;;;;;5095250;28;20058;-72
2021/08/03 04:12:44;;;;;;;2.08;0.35;;;20.20;67.20;;;;;;5095676;28;20040;-71
2021/08/03 04:15:12;;;;;;;1.15;0.40;;;20.20;67.20;;;;;;5094978;28;20089;-71
2021/08/03 04:17:37;;;;;;;2.45;0.50;;;20.20;67.30;;;;;;5095219;28;20147;-71
2021/08/03 04:20:04;;;;;;;2.08;0.52;;;20.20;67.20;;;;;;5095257;28;20067;-71
2021/08/03 04:22:30;;;;;;;0.65;0.40;;;20.20;67.30;;;;;;5095184;28;20515;-72
2021/08/03 04:24:55;;;;;;;2.05;0.20;;;20.20;67.30;;;;;;5095248;28;20036;-72
2021/08/03 04:27:21;;;;;;;1.00;0.30;;;20.20;67.30;;;;;;5095206;28;20343;-71
2021/08/03 04:29:47;;;;;;;0.50;0.28;;;20.20;67.30;;;;;;5095103;28;20088;-71
2021/08/03 04:32:13;;;;;;;0.70;0.40;;;20.20;67.30;;;;;;5095119;28;20048;-72
2021/08/03 04:34:39;;;;;;;1.98;0.40;;;20.20;67.30;;;;;;5095554;28;20044;-71
2021/08/03 04:37:07;;;;;;;0.88;0.40;;;20.10;67.30;;;;;;5095085;28;20048;-71
2021/08/03 04:39:34;;;;;;;2.65;0.50;;;20.20;67.30;;;;;;5094820;28;20466;-72
2021/08/03 04:42:00;;;;;;;0.93;0.45;;;20.10;67.30;;;;;;5095212;28;20098;-71
2021/08/03 04:44:26;;;;;;;1.05;0.52;;;20.20;67.30;;;;;;5095723;28;20424;-72
2021/08/03 04:46:51;;;;;;;0.88;0.32;;;20.10;67.30;;;;;;5095053;28;20462;-71
2021/08/03 04:49:17;;;;;;;1.17;0.30;;;20.20;67.30;;;;;;5095267;28;20119;-72
2021/08/03 04:51:43;;;;;;;1.05;0.35;;;20.10;67.30;;;;;;5094966;28;20052;-71
2021/08/03 04:54:09;;;;;;;2.53;0.50;;;20.10;67.30;;;;;;5095354;28;20309;-71
2021/08/03 04:56:34;;;;;;;1.20;0.40;;;20.10;67.30;;;;;;5095380;28;20401;-71
2021/08/03 04:59:00;;;;;;;0.95;0.38;;;20.10;67.30;;;;;;5095170;28;20056;-72
2021/08/03 05:01:26;;;;;;;1.55;0.50;;;20.10;67.30;;;;;;5095167;28;20036;-71
2021/08/03 05:03:52;;;;;;;0.82;0.40;;;20.10;67.30;;;;;;5094670;28;20044;-71
2021/08/03 05:06:18;;;;;;;0.70;0.40;;;20.10;67.30;;;;;;5094928;28;20050;-71
2021/08/03 05:08:44;;;;;;;1.20;0.40;;;20.10;67.30;;;;;;5094764;28;20040;-72
2021/08/03 05:11:10;;;;;;;0.55;0.30;;;20.10;67.30;;;;;;5095029;28;20044;-71
2021/08/03 05:13:35;;;;;;;2.47;0.47;;;20.10;67.30;;;;;;5095370;28;20316;-71
2021/08/03 05:16:01;;;;;;;0.93;0.20;;;20.10;67.30;;;;;;5096386;28;20044;-71
2021/08/03 05:18:27;;;;;;;1.17;0.60;;;20.10;67.30;;;;;;5098584;28;20043;-71
2021/08/03 05:20:53;;;;;;;0.90;0.40;;;20.10;68.00;;;;;;5098620;28;20115;-71
2021/08/03 05:23:19;;;;;;;0.40;0.20;;;20.10;67.30;;;;;;5098495;28;20052;-71
2021/08/03 05:25:45;;;;;;;0.90;0.45;;;20.10;67.30;;;;;;5098735;28;20040;-72
2021/08/03 05:28:11;;;;;;;0.68;0.30;;;20.10;67.40;;;;;;5098330;28;20108;-71
2021/08/03 05:30:37;;;;;;;0.93;0.40;;;20.10;67.40;;;;;;5098904;28;20146;-72
2021/08/03 05:33:03;;;;;;;1.08;0.30;;;20.10;67.40;;;;;;5098172;28;20490;-71
2021/08/03 05:35:28;;;;;;;0.98;0.50;;;20.10;67.40;;;;;;5098780;28;20119;-71
2021/08/03 05:37:54;;;;;;;0.82;0.40;;;20.10;67.40;;;;;;5098177;28;20055;-72
2021/08/03 05:40:20;;;;;;;0.77;0.32;;;20.10;67.40;;;;;;5097816;28;20408;-71
2021/08/03 05:42:46;;;;;;;1.13;0.38;;;20.10;67.30;;;;;;5098338;28;20118;-72
2021/08/03 05:45:12;;;;;;;0.70;0.30;;;20.10;67.30;;;;;;5098894;28;20304;-71
2021/08/03 05:47:39;;;;;;;1.05;0.50;;;20.10;67.40;;;;;;5098023;28;20044;-71
2021/08/03 05:50:05;;;;;;;0.98;0.40;;;20.10;67.40;;;;;;5097992;28;20043;-71
2021/08/03 05:52:32;;;;;;;2.05;0.50;;;20.10;67.40;;;;;;5097732;28;20132;-72
2021/08/03 05:54:58;;;;;;;1.05;0.45;;;20.10;67.40;;;;;;5097712;28;20054;-71
2021/08/03 05:57:24;;;;;;;1.45;0.40;;;20.10;67.40;;;;;;5098018;28;20040;-71
2021/08/03 05:59:50;;;;;;;1.15;0.32;;;20.10;67.40;;;;;;5098327;28;20052;-72
2021/08/03 06:02:16;;;;;;;1.13;0.22;;;20.10;67.40;;;;;;5097782;28;20359;-71
2021/08/03 06:04:41;;;;;;;1.27;0.40;;;20.10;67.40;;;;;;5097560;28;20048;-72
2021/08/03 06:07:10;;;;;;;1.08;0.32;;;20.10;67.40;;;;;;5097846;28;20044;-71
2021/08/03 06:09:36;;;;;;;0.80;0.40;;;20.10;67.50;;;;;;5098210;28;20119;-71
2021/08/03 06:12:03;;;;;;;0.70;0.32;;;20.10;67.40;;;;;;5097957;28;20097;-71
2021/08/03 06:14:35;;;;;;;0.75;0.28;;;20.10;67.40;;;;;;5097462;28;20518;-71
2021/08/03 06:17:12;;;;;;;1.52;0.35;;;20.10;67.40;;;;;;5097439;28;20462;-71
2021/08/03 06:19:42;;;;;;;1.83;0.57;;;20.10;67.40;;;;;;5097457;28;20063;-71
2021/08/03 06:22:09;;;;;;;0.50;0.32;;;20.10;67.50;;;;;;5098102;28;20047;-71
2021/08/03 06:24:37;;;;;;;0.85;0.50;;;20.10;67.50;;;;;;5097453;28;20371;-71
2021/08/03 06:27:09;;;;;;;0.52;0.30;;;20.10;67.50;;;;;;5096764;28;20059;-71
2021/08/03 06:29:37;;;;;;;1.30;0.50;;;20.20;68.20;;;;;;5097112;28;20074;-71
2021/08/03 06:32:06;;;;;;;1.13;0.50;;;20.10;67.50;;;;;;5097137;28;20039;-72
2021/08/03 06:34:38;;;;;;;0.73;0.40;;;20.10;67.50;;;;;;5097602;28;20039;-71
2021/08/03 06:37:05;;;;;;;0.60;0.40;;;20.20;67.60;;;;;;5097457;28;20051;-71
2021/08/03 06:39:33;;;;;;;0.98;0.38;;;20.10;67.60;;;;;;5096929;28;20048;-71
2021/08/03 06:42:13;;;;;;;1.33;0.40;;;20.20;67.60;;;;;;5097092;28;20040;-71
2021/08/03 06:45:07;;;;;;;0.65;0.32;;;20.20;67.60;;;;;;5096806;28;20072;-72
2021/08/03 06:47:48;;;;;;;1.08;0.50;;;20.20;67.50;;;;;;5094053;28;20127;-71
2021/08/03 06:50:16;;;;;;;0.52;0.30;;;20.20;67.60;;;;;;5096851;28;20036;-71
2021/08/03 06:52:42;;;;;;;1.15;0.40;;;20.20;67.60;;;;;;5096855;28;20044;-71
2021/08/03 06:55:08;;;;;;;0.65;0.30;;;20.20;67.60;;;;;;5096564;28;20040;-71
2021/08/03 06:57:35;;;;;;;1.77;0.30;;;20.20;67.60;;;;;;5097034;28;20089;-71
2021/08/03 07:00:08;;;;;;;0.88;0.40;;;20.20;67.60;;;;;;5096474;28;20462;-71
2021/08/03 07:02:43;;;;;;;2.03;0.35;;;20.20;67.60;;;;;;5097244;28;20036;-71
2021/08/03 07:05:16;;;;;;;0.50;0.40;;;20.20;67.60;;;;;;5096203;28;20134;-71
2021/08/03 07:07:43;;;;;;;0.80;0.30;;;20.20;67.60;;;;;;5097070;28;20125;-71
2021/08/03 07:10:10;;;;;;;1.15;0.52;;;20.20;67.60;;;;;;5096475;28;20074;-71
2021/08/03 07:12:41;;;;;;;1.38;0.50;;;20.20;67.60;;;;;;5096691;28;20044;-71
2021/08/03 07:15:07;;;;;;;1.23;0.40;;;20.30;67.70;;;;;;5096309;28;20036;-71
2021/08/03 07:17:35;;;;;;;0.73;0.50;;;20.20;67.60;;;;;;5096189;28;20047;-71
2021/08/03 07:20:01;;;;;;;1.33;0.40;;;20.30;67.70;;;;;;5096328;28;20105;-71
2021/08/03 07:22:28;;;;;;;0.55;0.38;;;20.30;67.70;;;;;;5095908;28;20115;-72
2021/08/03 07:24:55;;;;;;;1.35;0.47;;;20.30;67.70;;;;;;5096119;28;20043;-71
2021/08/03 07:27:21;;;;;;;0.50;0.30;;;20.30;67.70;;;;;;5096672;28;20043;-71
2021/08/03 07:29:47;;;;;;;0.60;0.30;;;20.30;67.70;;;;;;5096119;28;20069;-72
2021/08/03 07:32:13;;;;;;;0.90;0.40;;;20.30;67.70;;;;;;5096050;28;20040;-71
2021/08/03 07:34:42;;;;;;;0.77;0.30;;;20.20;67.70;;;;;;5095975;28;20138;-71
2021/08/03 07:37:09;;;;;;;0.95;0.40;;;20.30;67.70;;;;;;5096448;28;20043;-72
2021/08/03 07:39:37;;;;;;;0.40;0.35;;;20.20;67.60;;;;;;5096382;28;20040;-71
2021/08/03 07:42:04;;;;;;;1.27;0.57;;;20.30;67.70;;;;;;5095899;28;20408;-71
2021/08/03 07:44:30;;;;;;;1.38;0.70;;;20.30;67.70;;;;;;5096267;28;20427;-71
2021/08/03 07:46:56;;;;;;;0.70;0.30;;;20.20;67.60;;;;;;5095892;28;20123;-71
2021/08/03 07:49:22;;;;;;;1.10;0.50;;;20.20;67.60;;;;;;5095645;28;20070;-72
2021/08/03 07:51:48;;;;;;;0.60;0.40;;;20.30;67.70;;;;;;5096173;28;20032;-71
2021/08/03 07:54:14;;;;;;;0.70;0.40;;;20.30;67.70;;;;;;5095633;28;20101;-71
2021/08/03 07:56:41;;;;;;;0.70;0.30;;;20.30;67.70;;;;;;5095850;28;20104;-71
2021/08/03 07:59:06;;;;;;;1.98;0.60;;;20.30;67.70;;;;;;5096128;28;20139;-72
2021/08/03 08:01:35;;;;;;;1.08;0.50;;;20.30;67.70;;;;;;5096057;28;20448;-71
2021/08/03 08:04:01;;;;;;;0.50;0.30;;;20.30;67.70;;;;;;5095387;28;20087;-71
2021/08/03 08:06:26;;;;;;;0.43;0.30;;;20.30;67.60;;;;;;5095396;28;20450;-71
2021/08/03 08:08:52;;;;;;;0.77;0.32;;;20.30;67.50;;;;;;5095366;28;20047;-71
2021/08/03 08:11:19;;;;;;;0.93;0.43;;;20.30;67.50;;;;;;5095914;28;20131;-71
2021/08/03 08:13:44;;;;;;;1.25;0.52;;;20.30;67.40;;;;;;5095439;28;20409;-71
2021/08/03 08:16:10;;;;;;;1.35;0.50;;;20.30;67.40;;;;;;5095263;28;20498;-71
2021/08/03 08:18:36;;;;;;;0.98;0.50;;;20.30;67.40;;;;;;5094909;28;20102;-72
2021/08/03 08:21:03;;;;;;;0.60;0.40;;;20.30;67.40;;;;;;5095314;28;20111;-71
2021/08/03 08:23:29;;;;;;;0.90;0.38;;;20.40;67.50;;;;;;5095750;28;20115;-72
2021/08/03 08:25:58;;;;;;;0.70;0.50;;;20.40;67.60;;;;;;5095293;28;20044;-71
2021/08/03 08:28:24;;;;;;;1.15;0.40;;;20.40;67.60;;;;;;5095645;28;20040;-71
2021/08/03 08:30:50;;;;;;;0.80;0.38;;;20.40;67.60;;;;;;5095177;28;20040;-71
2021/08/03 08:33:17;;;;;;;0.60;0.40;;;20.40;68.10;;;;;;5095610;28;20432;-71
2021/08/03 08:35:43;;;;;;;1.70;0.50;;;20.40;67.50;;;;;;5095733;28;20091;-71
2021/08/03 08:38:09;;;;;;;0.70;0.40;;;20.40;67.50;;;;;;5095114;28;20044;-71
2021/08/03 08:40:35;;;;;;;1.00;0.50;;;20.40;67.40;;;;;;5095281;28;20048;-71
2021/08/03 08:43:01;;;;;;;0.45;0.20;;;20.40;67.50;;;;;;5094956;28;20111;-71
2021/08/03 08:45:27;;;;;;;1.13;0.40;;;20.40;67.50;;;;;;5094914;28;20055;-71
2021/08/03 08:47:53;;;;;;;1.75;0.43;;;20.40;67.50;;;;;;5094865;28;20044;-72
2021/08/03 08:50:20;;;;;;;0.93;0.30;;;20.40;67.50;;;;;;5096104;28;20424;-71
2021/08/03 08:52:53;;;;;;;1.30;0.40;;;20.40;67.40;;;;;;5099178;28;20047;-71
2021/08/03 08:55:19;;;;;;;0.60;0.30;;;20.40;67.40;;;;;;5098769;28;20050;-71
2021/08/03 08:57:51;;;;;;;0.85;0.50;;;20.40;67.40;;;;;;5098952;28;20039;-71
2021/08/03 09:00:19;;;;;;;0.73;0.38;;;20.40;67.40;;;;;;5098487;28;20208;-71
2021/08/03 09:02:53;;;;;;;0.60;0.40;;;20.40;67.40;;;;;;5099325;28;20040;-71
2021/08/03 09:05:39;;;;;;;0.68;0.38;;;20.40;67.30;;;;;;5098927;28;20044;-72
2021/08/03 09:08:07;;;;;;;0.50;0.30;;;20.40;67.20;;;;;;5099647;28;20059;-71
2021/08/03 09:10:38;;;;;;;1.00;0.50;;;20.40;67.90;;;;;;5098871;28;20047;-72
2021/08/03 09:13:15;;;;;;;0.90;0.43;;;20.40;67.30;;;;;;5099275;28;20132;-72
2021/08/03 09:15:46;;;;;;;0.40;0.30;;;20.40;67.20;;;;;;5098551;28;20040;-72
2021/08/03 09:18:21;;;;;;;0.55;0.40;;;20.50;67.40;;;;;;5098571;28;20070;-71
2021/08/03 09:20:47;;;;;;;0.88;0.50;;;20.40;67.20;;;;;;5098604;28;20055;-71
2021/08/03 09:23:14;;;;;;;1.25;0.43;;;20.50;68.00;;;;;;5098545;28;20087;-72
2021/08/03 09:25:56;;;;;;;0.75;0.38;;;20.40;67.30;;;;;;5098931;28;20062;-71
2021/08/03 09:28:21;;;;;;;0.85;0.55;;;20.50;67.20;;;;;;5098990;28;20058;-72
2021/08/03 09:30:47;;;;;;;1.25;0.65;;;20.50;67.30;;;;;;5098266;28;20455;-71
2021/08/03 09:33:22;;;;;;;0.68;0.40;;;20.50;67.20;;;;;;5098944;28;20044;-71
2021/08/03 09:35:49;;;;;;;0.85;0.30;;;20.50;67.20;;;;;;5098189;28;20044;-71
2021/08/03 09:38:17;;;;;;;0.80;0.40;;;20.50;67.30;;;;;;5098204;28;20113;-71
2021/08/03 09:40:43;;;;;;;0.47;0.30;;;20.50;67.30;;;;;;5098163;28;20055;-72
2021/08/03 09:43:11;;;;;;;0.68;0.22;;;20.50;67.30;;;;;;5098163;28;20044;-71
2021/08/03 09:45:42;;;;;;;0.63;0.38;;;20.50;67.20;;;;;;5099012;28;20040;-71
2021/08/03 09:48:19;;;;;;;0.50;0.32;;;20.50;67.10;;;;;;5098574;28;20048;-71
2021/08/03 09:51:04;;;;;;;0.77;0.30;;;20.50;67.10;;;;;;5098205;28;20040;-72
2021/08/03 09:53:39;;;;;;;0.93;0.65;;;20.50;67.00;;;;;;5097833;28;20050;-72
2021/08/03 09:56:07;;;;;;;1.05;0.40;;;20.50;67.00;;;;;;5097783;28;20119;-71
2021/08/03 09:58:47;;;;;;;0.65;0.50;;;20.50;67.10;;;;;;5097628;28;20051;-71
2021/08/03 10:01:36;;;;;;;0.90;0.50;;;20.50;67.10;;;;;;5098349;28;20043;-72
2021/08/03 10:04:04;;;;;;;1.50;0.43;;;20.60;66.90;;;;;;5097642;28;20093;-71
2021/08/03 10:06:31;;;;;;;0.80;0.30;;;20.60;67.10;;;;;;5098297;28;20048;-71
2021/08/03 10:08:58;;;;;;;0.77;0.40;;;20.60;67.00;;;;;;5097900;28;20051;-71
2021/08/03 10:11:24;;;;;;;0.73;0.43;;;20.60;66.90;;;;;;5097523;28;20131;-71
2021/08/03 10:13:52;;;;;;;1.77;0.50;;;20.60;67.00;;;;;;5097387;28;20380;-71
2021/08/03 10:16:19;;;;;;;0.95;0.50;;;20.60;66.90;;;;;;5097456;28;20123;-71
2021/08/03 10:18:47;;;;;;;1.52;0.30;;;20.60;67.00;;;;;;5097479;28;20040;-71
2021/08/03 10:21:44;;;;;;;1.17;0.32;;;20.60;67.00;;;;;;5098019;28;20036;-72
2021/08/03 10:24:21;;;;;;;0.40;0.30;;;20.60;66.70;;;;;;5089219;28;20439;-72
2021/08/03 10:27:06;;;;;;;0.95;0.50;;;20.60;66.90;;;;;;5097676;28;20040;-72
2021/08/03 10:29:36;;;;;;;0.70;0.40;;;20.60;66.70;;;;;;5097136;28;20035;-71
2021/08/03 10:32:03;;;;;;;0.60;0.40;;;20.60;66.90;;;;;;5097059;28;20425;-72
2021/08/03 10:34:49;;;;;;;1.17;0.40;;;20.60;66.90;;;;;;5097196;28;20048;-71
2021/08/03 10:37:15;;;;;;;0.52;0.30;;;20.60;66.60;;;;;;5097126;28;20168;-71
2021/08/03 10:39:50;;;;;;;0.98;0.35;;;20.70;66.80;;;;;;5097108;28;20123;-72
2021/08/03 10:42:16;;;;;;;1.02;0.30;;;20.70;66.60;;;;;;5097015;28;20067;-71
2021/08/03 10:44:50;;;;;;;0.88;0.30;;;20.70;66.70;;;;;;5096606;28;20110;-71
2021/08/03 10:47:32;;;;;;;0.70;0.30;;;20.70;66.70;;;;;;5097336;28;20044;-71
2021/08/03 10:50:08;;;;;;;0.55;0.40;;;20.70;66.60;;;;;;5097193;28;20468;-72
2021/08/03 10:52:49;;;;;;;0.63;0.43;;;20.70;66.50;;;;;;5097036;28;20043;-71
2021/08/03 10:55:30;;;;;;;0.95;0.30;;;20.70;66.50;;;;;;5096534;28;20128;-71
2021/08/03 10:58:16;;;;;;;0.85;0.50;;;20.70;66.40;;;;;;5096761;28;20036;-72
2021/08/03 11:00:42;;;;;;;0.68;0.30;;;20.70;66.50;;;;;;5096400;28;20052;-72
2021/08/03 11:03:36;;;;;;;0.93;0.40;;;20.70;66.60;;;;;;5096617;28;20346;-71
2021/08/03 11:06:10;;;;;;;0.98;0.35;;;20.80;66.40;;;;;;5096600;28;20473;-71
2021/08/03 11:08:40;;;;;;;0.52;0.30;;;20.70;66.40;;;;;;5096683;28;20111;-72
2021/08/03 11:11:09;;;;;;;1.58;0.50;;;20.70;66.50;;;;;;5096308;28;20036;-71
2021/08/03 11:13:37;;;;;;;0.95;0.38;;;20.70;66.50;;;;;;5096405;28;20046;-72
2021/08/03 11:16:09;;;;;;;0.52;0.40;;;20.70;66.40;;;;;;5096178;28;20403;-72
2021/08/03 11:18:43;;;;;;;1.17;0.30;;;20.70;66.50;;;;;;5096349;28;20036;-71
2021/08/03 11:21:11;;;;;;;0.60;0.30;;;20.70;66.40;;;;;;5096211;28;20071;-71
2021/08/03 11:24:05;;;;;;;1.00;0.40;;;20.70;66.40;;;;;;5096488;28;20106;-71
2021/08/03 11:26:39;;;;;;;0.50;0.28;;;20.80;66.30;;;;;;5096609;28;20044;-72
2021/08/03 11:29:09;;;;;;;0.70;0.40;;;20.80;66.40;;;;;;5096274;28;20109;-72
2021/08/03 11:31:51;;;;;;;1.02;0.30;;;20.70;66.50;;;;;;5096078;28;20040;-71
2021/08/03 11:34:21;;;;;;;0.77;0.35;;;20.70;66.40;;;;;;5096108;28;20048;-71
2021/08/03 11:36:57;;;;;;;0.70;0.40;;;20.70;66.40;;;;;;5096290;28;20435;-72
2021/08/03 11:39:28;;;;;;;1.77;0.35;;;20.80;66.40;;;;;;5095846;28;20660;-72
2021/08/03 11:41:55;;;;;;;0.40;0.30;;;20.70;66.50;;;;;;5096460;28;20039;-71
2021/08/03 11:44:21;;;;;;;0.32;0.30;;;20.80;66.50;;;;;;5095718;28;20052;-72
2021/08/03 11:47:08;;;;;;;0.65;0.30;;;20.80;66.50;;;;;;5095987;28;20050;-72
2021/08/03 11:49:38;;;;;;;0.63;0.30;;;20.70;66.30;;;;;;5095761;28;20032;-72
2021/08/03 11:52:13;;;;;;;0.70;0.32;;;20.70;66.40;;;;;;5095686;28;20062;-71
2021/08/03 11:54:41;;;;;;;0.80;0.50;;;20.70;66.30;;;;;;5095668;28;20052;-72
2021/08/03 11:57:24;;;;;;;0.57;0.22;;;20.80;66.50;;;;;;5095650;28;20439;-71
2021/08/03 11:59:59;;;;;;;0.83;0.30;;;20.70;66.20;;;;;;5095278;28;20048;-72
2021/08/03 12:02:25;;;;;;;0.80;0.30;;;20.80;66.30;;;;;;5095561;28;20040;-71
2021/08/03 12:05:03;;;;;;;0.63;0.30;;;20.80;66.50;;;;;;5095883;28;20364;-71
2021/08/03 12:07:29;;;;;;;0.73;0.38;;;20.70;66.30;;;;;;5095504;28;20043;-72
2021/08/03 12:09:55;;;;;;;0.60;0.30;;;20.70;66.40;;;;;;5095431;28;20036;-71
2021/08/03 12:12:21;;;;;;;0.70;0.38;;;20.70;66.40;;;;;;5095328;28;20354;-71
2021/08/03 12:14:47;;;;;;;1.52;0.40;;;20.80;66.40;;;;;;5095734;28;20040;-71
2021/08/03 12:17:26;;;;;;;0.80;0.35;;;20.80;66.40;;;;;;5096001;28;20071;-71
2021/08/03 12:19:52;;;;;;;0.70;0.40;;;20.80;66.20;;;;;;5095497;28;20060;-71
2021/08/03 12:22:29;;;;;;;0.65;0.30;;;20.70;66.30;;;;;;5095136;28;20509;-71
2021/08/03 12:25:03;;;;;;;0.90;0.50;;;20.80;66.20;;;;;;5094381;28;20047;-72
2021/08/03 12:27:40;;;;;;;0.50;0.32;;;20.80;66.30;;;;;;5095265;28;20036;-71
2021/08/03 12:30:06;;;;;;;1.23;0.40;;;20.80;66.40;;;;;;5095614;28;20104;-72
2021/08/03 12:32:37;;;;;;;0.90;0.40;;;20.80;66.40;;;;;;5095073;28;20044;-71
2021/08/03 12:35:14;;;;;;;1.00;0.50;;;20.80;66.30;;;;;;5095047;28;20040;-72
2021/08/03 12:37:40;;;;;;;1.00;0.50;;;20.80;66.30;;;;;;5095525;28;20040;-71
2021/08/03 12:40:32;;;;;;;0.45;0.30;;;20.80;66.30;;;;;;5095379;28;20047;-71
2021/08/03 12:42:59;;;;;;;1.33;0.40;;;20.80;66.70;;;;;;5095552;28;20382;-71
2021/08/03 12:45:25;;;;;;;0.93;0.40;;;20.80;66.30;;;;;;5094877;28;20352;-71
2021/08/03 12:47:57;;;;;;;0.93;0.45;;;20.80;66.40;;;;;;5094951;28;20052;-71
2021/08/03 12:50:24;;;;;;;0.82;0.30;;;20.80;66.20;;;;;;5095021;28;20071;-71
2021/08/03 12:52:53;;;;;;;0.80;0.55;;;20.80;66.10;;;;;;5095603;28;20036;-71
2021/08/03 12:55:27;;;;;;;0.65;0.40;;;20.80;66.10;;;;;;5095135;28;20058;-71
2021/08/03 12:57:58;;;;;;;0.75;0.40;;;20.90;66.10;;;;;;5094966;28;20123;-71
2021/08/03 13:00:36;;;;;;;0.93;0.40;;;20.90;66.10;;;;;;5095149;28;20466;-72
2021/08/03 13:03:05;;;;;;;0.60;0.40;;;20.90;65.90;;;;;;5095267;28;20072;-72